Aviation Digital Data Service (ADDS)

Output produced by METARs form (1432 UTC 25 October 2014)
found at http://aviationweather.gov/adds/metars/
 
METAR text: GVAC 251400Z 04010KT 9999 FEW014 BKN200 32/19 Q1012 NOSIG
Conditions at: GVAC (SAL ISL/AMILCAR , CV) observed 1400 UTC 25 October 2014
Temperature: 32.0°C (90°F)
Dewpoint: 19.0°C (66°F) [RH = 46%]
Pressure (altimeter): 29.88 inches Hg (1012.0 mb)
Winds: from the NE (40 degrees) at 12 MPH (10 knots; 5.2 m/s)
Visibility: 6 or more miles (10+ km)
Ceiling: 20000 feet AGL
Clouds: few clouds at 1400 feet AGL
broken clouds at 20000 feet AGL
Weather: no significant weather observed at this time

METAR text: GVAC 251300Z 03012KT 9999 FEW014 BKN200 30/21 Q1013 NOSIG
Conditions at: GVAC (SAL ISL/AMILCAR , CV) observed 1300 UTC 25 October 2014
Temperature: 30.0°C (86°F)
Dewpoint: 21.0°C (70°F) [RH = 59%]
Pressure (altimeter): 29.91 inches Hg (1013.0 mb)
Winds: from the NNE (30 degrees) at 14 MPH (12 knots; 6.2 m/s)
Visibility: 6 or more miles (10+ km)
Ceiling: 20000 feet AGL
Clouds: few clouds at 1400 feet AGL
broken clouds at 20000 feet AGL
Weather: no significant weather observed at this time

METAR text: GVAC 251200Z 02013KT 9999 FEW014 BKN200 30/22 Q1014 NOSIG
Conditions at: GVAC (SAL ISL/AMILCAR , CV) observed 1200 UTC 25 October 2014
Temperature: 30.0°C (86°F)
Dewpoint: 22.0°C (72°F) [RH = 62%]
Pressure (altimeter): 29.94 inches Hg (1014.0 mb)
Winds: from the NNE (20 degrees) at 15 MPH (13 knots; 6.8 m/s)
Visibility: 6 or more miles (10+ km)
Ceiling: 20000 feet AGL
Clouds: few clouds at 1400 feet AGL
broken clouds at 20000 feet AGL
Weather: no significant weather observed at this time

METAR text: GVAC 251100Z 02011KT 9999 FEW014 BKN200 29/21 Q1014 NOSIG
Conditions at: GVAC (SAL ISL/AMILCAR , CV) observed 1100 UTC 25 October 2014
Temperature: 29.0°C (84°F)
Dewpoint: 21.0°C (70°F) [RH = 62%]
Pressure (altimeter): 29.94 inches Hg (1014.0 mb)
Winds: from the NNE (20 degrees) at 13 MPH (11 knots; 5.7 m/s)
Visibility: 6 or more miles (10+ km)
Ceiling: 20000 feet AGL
Clouds: few clouds at 1400 feet AGL
broken clouds at 20000 feet AGL
Weather: no significant weather observed at this time

METAR text: GVAC 251000Z 02011KT 9999 FEW014 BKN200 27/23 Q1013 NOSIG
Conditions at: GVAC (SAL ISL/AMILCAR , CV) observed 1000 UTC 25 October 2014
Temperature: 27.0°C (81°F)
Dewpoint: 23.0°C (73°F) [RH = 79%]
Pressure (altimeter): 29.91 inches Hg (1013.0 mb)
Winds: from the NNE (20 degrees) at 13 MPH (11 knots; 5.7 m/s)
Visibility: 6 or more miles (10+ km)
Ceiling: 20000 feet AGL
Clouds: few clouds at 1400 feet AGL
broken clouds at 20000 feet AGL
Weather: no significant weather observed at this time

METAR text: GVAC 250900Z 01008KT 9999 FEW014 BKN200 25/23 Q1013 NOSIG
Conditions at: GVAC (SAL ISL/AMILCAR , CV) observed 0900 UTC 25 October 2014
Temperature: 25.0°C (77°F)
Dewpoint: 23.0°C (73°F) [RH = 89%]
Pressure (altimeter): 29.91 inches Hg (1013.0 mb)
Winds: from the N (10 degrees) at 9 MPH (8 knots; 4.2 m/s)
Visibility: 6 or more miles (10+ km)
Ceiling: 20000 feet AGL
Clouds: few clouds at 1400 feet AGL
broken clouds at 20000 feet AGL
Weather: no significant weather observed at this time

METAR text: GVAC 250800Z 01008KT 9000 FEW014 SCT200 23/23 Q1012 NOSIG
Conditions at: GVAC (SAL ISL/AMILCAR , CV) observed 0800 UTC 25 October 2014
Temperature: 23.0°C (73°F)
Dewpoint: 23.0°C (73°F) [RH = 100%]
Pressure (altimeter): 29.88 inches Hg (1012.0 mb)
Winds: from the N (10 degrees) at 9 MPH (8 knots; 4.2 m/s)
Visibility: 6 miles (9 km)
Ceiling: at least 12,000 feet AGL
Clouds: few clouds at 1400 feet AGL
scattered clouds at 20000 feet AGL
Weather: no significant weather observed at this time

METAR text: GVAC 250700Z 01008KT 8000 SCT014 BKN200 23/23 Q1012 NOSIG
Conditions at: GVAC (SAL ISL/AMILCAR , CV) observed 0700 UTC 25 October 2014
Temperature: 23.0°C (73°F)
Dewpoint: 23.0°C (73°F) [RH = 100%]
Pressure (altimeter): 29.88 inches Hg (1012.0 mb)
Winds: from the N (10 degrees) at 9 MPH (8 knots; 4.2 m/s)
Visibility: 5 miles (8 km)
Ceiling: 20000 feet AGL
Clouds: scattered clouds at 1400 feet AGL
broken clouds at 20000 feet AGL
Weather: no significant weather observed at this time

METAR text: GVAC 250600Z 01009KT 8000 SCT014 BKN200 23/23 Q1011 NOSIG
Conditions at: GVAC (SAL ISL/AMILCAR , CV) observed 0600 UTC 25 October 2014
Temperature: 23.0°C (73°F)
Dewpoint: 23.0°C (73°F) [RH = 100%]
Pressure (altimeter): 29.85 inches Hg (1011.0 mb)
Winds: from the N (10 degrees) at 10 MPH (9 knots; 4.7 m/s)
Visibility: 5 miles (8 km)
Ceiling: 20000 feet AGL
Clouds: scattered clouds at 1400 feet AGL
broken clouds at 20000 feet AGL
Weather: no significant weather observed at this time

METAR text: GVAC 250500Z 36007KT 8000 SCT014 BKN200 23/23 Q1011 NOSIG
Conditions at: GVAC (SAL ISL/AMILCAR , CV) observed 0500 UTC 25 October 2014
Temperature: 23.0°C (73°F)
Dewpoint: 23.0°C (73°F) [RH = 100%]
Pressure (altimeter): 29.85 inches Hg (1011.0 mb)
Winds: from the N (360 degrees) at 8 MPH (7 knots; 3.6 m/s)
Visibility: 5 miles (8 km)
Ceiling: 20000 feet AGL
Clouds: scattered clouds at 1400 feet AGL
broken clouds at 20000 feet AGL
Weather: no significant weather observed at this time

METAR text: GVAC 250400Z 01007KT 8000 SCT014 BKN200 24/23 Q1012 NOSIG
Conditions at: GVAC (SAL ISL/AMILCAR , CV) observed 0400 UTC 25 October 2014
Temperature: 24.0°C (75°F)
Dewpoint: 23.0°C (73°F) [RH = 94%]
Pressure (altimeter): 29.88 inches Hg (1012.0 mb)
Winds: from the N (10 degrees) at 8 MPH (7 knots; 3.6 m/s)
Visibility: 5 miles (8 km)
Ceiling: 20000 feet AGL
Clouds: scattered clouds at 1400 feet AGL
broken clouds at 20000 feet AGL
Weather: no significant weather observed at this time

METAR text: GVAC 250300Z 01008KT 8000 FEW014 BKN200 24/23 Q1012 NOSIG
Conditions at: GVAC (SAL ISL/AMILCAR , CV) observed 0300 UTC 25 October 2014
Temperature: 24.0°C (75°F)
Dewpoint: 23.0°C (73°F) [RH = 94%]
Pressure (altimeter): 29.88 inches Hg (1012.0 mb)
Winds: from the N (10 degrees) at 9 MPH (8 knots; 4.2 m/s)
Visibility: 5 miles (8 km)
Ceiling: 20000 feet AGL
Clouds: few clouds at 1400 feet AGL
broken clouds at 20000 feet AGL
Weather: no significant weather observed at this time